createdAt,value
2023-09-16T00:00:34.808Z,1.15
2023-09-16T00:03:03.047Z,0.85
2023-09-16T00:05:30.608Z,0.90
2023-09-16T00:07:57.970Z,0.95
2023-09-16T00:10:25.428Z,0.80
2023-09-16T00:12:52.937Z,0.80
2023-09-16T00:15:23.747Z,0.90
2023-09-16T00:17:51.198Z,1.25
2023-09-16T00:20:18.657Z,0.88
2023-09-16T00:22:49.825Z,0.98
2023-09-16T00:25:20.893Z,1.00
2023-09-16T00:27:49.104Z,1.00
2023-09-16T00:30:17.075Z,1.00
2023-09-16T00:32:44.792Z,0.82
2023-09-16T00:35:12.375Z,1.20
2023-09-16T00:37:39.923Z,1.05
2023-09-16T00:40:07.704Z,0.90
2023-09-16T00:42:39.348Z,0.98
2023-09-16T00:45:08.504Z,0.98
2023-09-16T00:47:35.964Z,1.23
2023-09-16T00:50:07.078Z,0.70
2023-09-16T00:52:34.789Z,1.05
2023-09-16T00:55:02.309Z,1.00
2023-09-16T00:57:30.912Z,1.05
2023-09-16T00:59:58.514Z,1.00
2023-09-16T01:02:27.697Z,1.00
2023-09-16T01:04:55.946Z,1.40
2023-09-16T01:07:23.571Z,1.10
2023-09-16T01:09:51.027Z,1.10
2023-09-16T01:12:18.570Z,0.90
2023-09-16T01:14:45.920Z,0.77
2023-09-16T01:17:33.925Z,1.20
2023-09-16T01:20:03.879Z,1.30
2023-09-16T01:22:31.874Z,0.95
2023-09-16T01:25:09.285Z,0.90
2023-09-16T01:27:39.187Z,0.93
2023-09-16T01:30:07.517Z,0.82
2023-09-16T01:32:55.237Z,1.23
2023-09-16T01:35:25.542Z,0.90
2023-09-16T01:37:54.258Z,1.10
2023-09-16T01:40:23.591Z,0.90
2023-09-16T01:42:54.155Z,1.20
2023-09-16T01:45:29.745Z,1.00
2023-09-16T01:47:57.197Z,1.25
2023-09-16T01:50:24.711Z,1.15
2023-09-16T01:52:52.190Z,1.10
2023-09-16T01:55:19.557Z,0.90
2023-09-16T01:57:46.936Z,1.35
2023-09-16T02:00:14.724Z,1.27
2023-09-16T02:02:42.120Z,1.10
2023-09-16T02:05:10.346Z,0.80
2023-09-16T02:07:37.798Z,1.23
2023-09-16T02:10:05.386Z,1.00
2023-09-16T02:12:34.540Z,1.02
2023-09-16T02:15:02.810Z,1.52
2023-09-16T02:17:30.281Z,1.02
2023-09-16T02:19:57.820Z,1.10
2023-09-16T02:22:25.503Z,1.30
2023-09-16T02:24:53.067Z,0.90
2023-09-16T02:27:20.659Z,1.00
2023-09-16T02:29:49.463Z,1.00
2023-09-16T02:32:16.898Z,1.20
2023-09-16T02:34:44.482Z,1.00
2023-09-16T02:37:13.376Z,1.10
2023-09-16T02:39:41.087Z,0.75
2023-09-16T02:42:08.627Z,1.23
2023-09-16T02:44:36.060Z,1.00
2023-09-16T02:47:03.486Z,1.10
2023-09-16T02:49:32.656Z,1.25
2023-09-16T02:52:00.118Z,0.98
2023-09-16T02:54:28.659Z,0.80
2023-09-16T02:56:56.069Z,1.10
2023-09-16T02:59:23.449Z,0.95
2023-09-16T03:01:51.103Z,1.10
2023-09-16T03:04:18.571Z,1.20
2023-09-16T03:06:46.020Z,1.00
2023-09-16T03:09:14.007Z,1.02
2023-09-16T03:11:41.456Z,1.20
2023-09-16T03:14:08.942Z,0.85
2023-09-16T03:16:36.977Z,1.10
2023-09-16T03:19:07.631Z,0.90
2023-09-16T03:21:35.116Z,1.13
2023-09-16T03:24:02.891Z,1.15
2023-09-16T03:26:30.238Z,0.95
2023-09-16T03:28:58.408Z,1.25
2023-09-16T03:31:25.850Z,1.15
2023-09-16T03:33:53.494Z,1.00
2023-09-16T03:36:21.034Z,1.08
2023-09-16T03:38:52.469Z,0.82
2023-09-16T03:41:20.258Z,1.05
2023-09-16T03:43:50.143Z,1.20
2023-09-16T03:46:18.315Z,1.08
2023-09-16T03:48:45.905Z,1.13
2023-09-16T03:51:14.112Z,1.10
2023-09-16T03:53:41.680Z,1.10
2023-09-16T03:56:13.349Z,0.90
2023-09-16T03:58:40.988Z,1.00
2023-09-16T04:01:08.624Z,1.10
2023-09-16T04:03:36.294Z,1.10
2023-09-16T04:06:06.075Z,1.00
2023-09-16T04:08:41.811Z,1.00
2023-09-16T04:11:10.692Z,0.98
2023-09-16T04:13:38.459Z,1.20
2023-09-16T04:16:05.973Z,0.88
2023-09-16T04:18:35.460Z,1.00
2023-09-16T04:21:04.574Z,0.95
2023-09-16T04:23:32.690Z,1.10
2023-09-16T04:26:01.964Z,1.00
2023-09-16T04:28:30.828Z,1.02
2023-09-16T04:31:00.093Z,1.05
2023-09-16T04:33:27.735Z,1.00
2023-09-16T04:35:55.164Z,1.10
2023-09-16T04:38:24.145Z,1.17
2023-09-16T04:40:51.587Z,1.10
2023-09-16T04:43:18.967Z,1.00
2023-09-16T04:45:50.517Z,1.00
2023-09-16T04:48:18.571Z,1.38
2023-09-16T04:50:49.284Z,0.98
2023-09-16T04:53:17.741Z,1.10
2023-09-16T04:55:45.683Z,1.15
2023-09-16T04:58:13.225Z,0.95
2023-09-16T05:00:40.783Z,1.10
2023-09-16T05:03:08.352Z,1.27
2023-09-16T05:05:37.039Z,0.95
2023-09-16T05:08:04.624Z,1.20
2023-09-16T05:10:32.082Z,0.93
2023-09-16T05:13:00.434Z,1.10
2023-09-16T05:15:28.349Z,0.90
2023-09-16T05:17:55.898Z,1.30
2023-09-16T05:20:23.325Z,1.00
2023-09-16T05:22:51.002Z,1.10
2023-09-16T05:25:18.586Z,1.60
2023-09-16T05:27:46.176Z,1.10
2023-09-16T05:30:13.763Z,1.27
2023-09-16T05:32:41.200Z,1.02
2023-09-16T05:35:09.125Z,0.88
2023-09-16T05:37:36.657Z,1.10
2023-09-16T05:40:04.608Z,1.33
2023-09-16T05:42:32.082Z,1.15
2023-09-16T05:45:01.662Z,1.05
2023-09-16T05:47:32.561Z,1.20
2023-09-16T05:50:00.307Z,1.30
2023-09-16T05:52:27.805Z,0.93
2023-09-16T05:54:55.220Z,1.20
2023-09-16T05:57:22.932Z,0.95
2023-09-16T05:59:50.452Z,1.08
2023-09-16T06:02:17.889Z,0.98
2023-09-16T06:04:45.429Z,1.05
2023-09-16T06:07:12.922Z,1.10
2023-09-16T06:09:40.445Z,1.10
2023-09-16T06:12:08.029Z,1.20
2023-09-16T06:14:35.745Z,1.42
2023-09-16T06:17:03.614Z,1.20
2023-09-16T06:19:31.228Z,0.90
2023-09-16T06:21:58.780Z,1.20
2023-09-16T06:24:26.509Z,1.30
2023-09-16T06:26:54.288Z,1.10
2023-09-16T06:29:21.688Z,0.95
2023-09-16T06:31:49.155Z,0.95
2023-09-16T06:34:16.695Z,1.40
2023-09-16T06:36:44.437Z,1.15
2023-09-16T06:39:12.844Z,1.40
2023-09-16T06:41:40.465Z,1.02
2023-09-16T06:44:07.849Z,1.00
2023-09-16T06:46:35.437Z,1.02
2023-09-16T06:49:02.902Z,1.00
2023-09-16T06:51:30.374Z,0.98
2023-09-16T06:53:57.822Z,1.23
2023-09-16T06:56:25.208Z,1.30
2023-09-16T06:58:52.666Z,1.20
2023-09-16T07:01:20.235Z,1.02
2023-09-16T07:03:47.812Z,0.93
2023-09-16T07:06:15.322Z,1.10
2023-09-16T07:08:42.689Z,1.20
2023-09-16T07:11:12.562Z,1.15
2023-09-16T07:13:39.969Z,1.30
2023-09-16T07:16:08.272Z,1.45
2023-09-16T07:18:36.374Z,1.30
2023-09-16T07:21:03.802Z,1.10
2023-09-16T07:23:31.242Z,1.30
2023-09-16T07:26:01.731Z,1.20
2023-09-16T07:28:29.638Z,1.40
2023-09-16T07:30:58.179Z,1.10
2023-09-16T07:33:25.663Z,0.80
2023-09-16T07:35:54.248Z,1.55
2023-09-16T07:38:21.637Z,1.10
2023-09-16T07:40:52.759Z,1.30
2023-09-16T07:43:21.455Z,0.93
2023-09-16T07:45:48.999Z,1.40
2023-09-16T07:48:18.549Z,1.52
2023-09-16T07:50:46.992Z,1.17
2023-09-16T07:53:14.584Z,1.13
2023-09-16T07:55:42.131Z,1.35
2023-09-16T07:58:09.640Z,1.23
2023-09-16T08:00:37.079Z,1.13
2023-09-16T08:03:04.704Z,1.17
2023-09-16T08:05:32.223Z,1.23
2023-09-16T08:07:59.688Z,1.17
2023-09-16T08:10:27.189Z,1.05
2023-09-16T08:12:54.774Z,1.42
2023-09-16T08:15:22.572Z,1.20
2023-09-16T08:17:50.049Z,1.20
2023-09-16T08:20:20.239Z,0.95
2023-09-16T08:22:47.742Z,1.38
2023-09-16T08:25:15.233Z,1.10
2023-09-16T08:27:42.786Z,1.08
2023-09-16T08:30:10.444Z,1.23
2023-09-16T08:32:40.226Z,1.38
2023-09-16T08:35:11.014Z,1.15
2023-09-16T08:37:38.525Z,0.98
2023-09-16T08:40:06.265Z,1.08
2023-09-16T08:42:39.141Z,1.20
2023-09-16T08:45:07.572Z,1.10
2023-09-16T08:47:36.267Z,1.40
2023-09-16T08:50:08.145Z,1.23
2023-09-16T08:52:50.910Z,1.20
2023-09-16T08:55:18.527Z,1.10
2023-09-16T08:57:51.535Z,1.17
2023-09-16T09:00:19.206Z,1.20
2023-09-16T09:02:47.149Z,1.30
2023-09-16T09:05:15.050Z,2.08
2023-09-16T09:07:43.324Z,1.30
2023-09-16T09:10:14.118Z,1.38
2023-09-16T09:12:43.428Z,1.17
2023-09-16T09:15:12.042Z,1.13
2023-09-16T09:17:45.293Z,1.17
2023-09-16T09:20:16.767Z,1.60
2023-09-16T09:22:44.402Z,1.35
2023-09-16T09:25:12.182Z,1.45
2023-09-16T09:27:39.681Z,1.50
2023-09-16T09:30:07.409Z,1.70
2023-09-16T09:32:35.003Z,1.73
2023-09-16T09:35:08.879Z,1.40
2023-09-16T09:37:36.245Z,1.55
2023-09-16T09:40:07.486Z,1.30
2023-09-16T09:42:43.158Z,1.42
2023-09-16T09:45:15.012Z,1.38
2023-09-16T09:47:42.966Z,2.28
2023-09-16T09:50:15.042Z,1.40
2023-09-16T09:52:49.163Z,1.35
2023-09-16T09:55:20.357Z,1.50
2023-09-16T09:57:48.803Z,1.42
2023-09-16T10:00:20.492Z,1.60
2023-09-16T10:02:49.314Z,1.50
2023-09-16T10:05:24.467Z,1.60
2023-09-16T10:07:52.870Z,1.50
2023-09-16T10:10:21.721Z,1.60
2023-09-16T10:12:50.584Z,1.42
2023-09-16T10:15:18.125Z,1.38
2023-09-16T10:17:47.104Z,1.52
2023-09-16T10:20:14.784Z,1.42
2023-09-16T10:22:42.477Z,1.60
2023-09-16T10:25:10.413Z,1.23
2023-09-16T10:27:53.967Z,1.35
2023-09-16T10:30:21.722Z,1.60
2023-09-16T10:32:49.617Z,1.27
2023-09-16T10:35:17.651Z,1.27
2023-09-16T10:37:46.284Z,1.10
2023-09-16T10:40:14.939Z,1.00
2023-09-16T10:42:43.766Z,1.23
2023-09-16T10:45:12.680Z,1.00
2023-09-16T10:47:40.395Z,1.30
2023-09-16T10:50:08.011Z,1.98
2023-09-16T10:52:48.212Z,1.17
2023-09-16T10:55:36.414Z,1.10
2023-09-16T10:58:05.382Z,1.13
2023-09-16T11:00:38.983Z,1.00
2023-09-16T11:03:06.961Z,1.20
2023-09-16T11:05:40.238Z,1.10
2023-09-16T11:08:09.497Z,1.20
2023-09-16T11:10:37.288Z,1.08
2023-09-16T11:13:05.403Z,1.30
2023-09-16T11:15:34.107Z,1.00
2023-09-16T11:18:05.391Z,1.60
2023-09-16T11:20:36.548Z,1.30
2023-09-16T11:23:05.216Z,1.17
2023-09-16T11:25:39.783Z,1.00
2023-09-16T11:28:12.670Z,1.08
2023-09-16T11:30:43.181Z,1.00
2023-09-16T11:33:28.933Z,1.25
2023-09-16T11:36:08.999Z,1.23
2023-09-16T11:38:36.582Z,1.17
2023-09-16T11:41:11.361Z,1.23
2023-09-16T11:43:39.698Z,1.27
2023-09-16T11:46:08.817Z,1.20
2023-09-16T11:48:53.616Z,1.38
2023-09-16T11:51:23.120Z,1.30
2023-09-16T11:53:51.332Z,1.30
2023-09-16T11:56:19.400Z,1.25
2023-09-16T11:58:47.527Z,1.80
2023-09-16T12:01:15.960Z,1.30
2023-09-16T12:03:43.465Z,1.50
2023-09-16T12:06:11.686Z,1.30
2023-09-16T12:08:43.723Z,1.23
2023-09-16T12:11:11.849Z,1.27
2023-09-16T12:13:43.446Z,1.15
2023-09-16T12:16:11.141Z,1.48
2023-09-16T12:18:38.763Z,1.30
2023-09-16T12:21:09.800Z,1.40
2023-09-16T12:23:37.649Z,1.40
2023-09-16T12:26:05.336Z,1.25
2023-09-16T12:28:33.401Z,1.50
2023-09-16T12:31:00.922Z,1.52
2023-09-16T12:33:41.442Z,1.23
2023-09-16T12:36:09.005Z,1.60
2023-09-16T12:38:37.459Z,1.67
2023-09-16T12:41:05.604Z,1.80
2023-09-16T12:43:34.332Z,1.75
2023-09-16T12:46:02.802Z,1.58
2023-09-16T12:48:30.481Z,1.50
2023-09-16T12:50:58.234Z,1.52
2023-09-16T12:53:26.579Z,1.50
2023-09-16T12:55:54.214Z,1.50
2023-09-16T12:58:26.255Z,1.50
2023-09-16T13:00:54.014Z,1.50
2023-09-16T13:03:23.411Z,1.35
2023-09-16T13:05:52.407Z,1.50
2023-09-16T13:08:26.254Z,1.77
2023-09-16T13:10:56.692Z,1.50
2023-09-16T13:13:24.381Z,1.40
2023-09-16T13:15:53.104Z,1.90
2023-09-16T13:18:21.283Z,1.42
2023-09-16T13:20:54.408Z,1.38
2023-09-16T13:23:29.186Z,1.52
2023-09-16T13:26:08.354Z,1.45
2023-09-16T13:28:35.887Z,1.08
2023-09-16T13:31:03.508Z,1.42
2023-09-16T13:33:50.704Z,1.85
2023-09-16T13:36:18.327Z,1.38
2023-09-16T13:38:46.504Z,1.60
2023-09-16T13:41:13.840Z,1.45
2023-09-16T13:43:41.291Z,1.40
2023-09-16T13:46:08.765Z,1.40
2023-09-16T13:48:36.392Z,1.23
2023-09-16T13:51:04.244Z,1.50
2023-09-16T13:53:31.768Z,1.33
2023-09-16T13:55:59.200Z,1.40
2023-09-16T13:58:27.634Z,1.50
2023-09-16T14:00:55.663Z,1.80
2023-09-16T14:03:23.493Z,1.75
2023-09-16T14:05:51.184Z,1.67
2023-09-16T14:08:18.837Z,1.27
2023-09-16T14:10:46.319Z,1.70
2023-09-16T14:13:13.889Z,1.10
2023-09-16T14:15:42.089Z,1.40
2023-09-16T14:18:10.089Z,1.50
2023-09-16T14:20:37.939Z,1.20
2023-09-16T14:23:06.794Z,1.50
2023-09-16T14:25:40.005Z,1.40
2023-09-16T14:28:07.403Z,1.27
2023-09-16T14:30:34.977Z,1.38
2023-09-16T14:33:02.458Z,1.20
2023-09-16T14:35:33.970Z,1.35
2023-09-16T14:38:05.060Z,1.30
2023-09-16T14:40:36.217Z,1.40
2023-09-16T14:43:04.118Z,1.30
2023-09-16T14:45:31.615Z,1.48
2023-09-16T14:47:59.124Z,1.15
2023-09-16T14:50:26.605Z,1.30
2023-09-16T14:52:54.068Z,1.23
2023-09-16T14:55:21.531Z,1.15
2023-09-16T14:57:49.051Z,1.30
2023-09-16T15:00:16.483Z,1.10
2023-09-16T15:02:45.224Z,1.30
2023-09-16T15:05:13.420Z,1.48
2023-09-16T15:07:41.292Z,1.08
2023-09-16T15:10:09.055Z,1.30
2023-09-16T15:12:37.457Z,1.10
2023-09-16T15:15:04.924Z,1.25
2023-09-16T15:17:32.366Z,1.40
2023-09-16T15:19:59.964Z,1.00
2023-09-16T15:22:27.579Z,1.20
2023-09-16T15:24:55.148Z,1.00
2023-09-16T15:27:23.757Z,0.70
2023-09-16T15:29:51.520Z,1.00
2023-09-16T15:34:49.607Z,1.10
2023-09-16T15:37:17.133Z,0.90
2023-09-16T15:39:44.610Z,0.88
2023-09-16T15:42:12.003Z,1.00
2023-09-16T15:44:39.369Z,0.98
2023-09-16T15:47:07.168Z,0.98
2023-09-16T15:49:35.464Z,0.90
2023-09-16T15:52:03.016Z,0.80
2023-09-16T15:54:30.487Z,1.25
2023-09-16T15:56:58.092Z,1.00
2023-09-16T15:59:25.531Z,1.00
2023-09-16T16:01:53.119Z,0.70
2023-09-16T16:04:20.816Z,1.00
2023-09-16T16:06:48.292Z,1.08
2023-09-16T16:09:15.724Z,0.90
2023-09-16T16:11:43.185Z,1.00
2023-09-16T16:14:11.732Z,0.90
2023-09-16T16:16:39.976Z,1.20
2023-09-16T16:19:08.819Z,0.88
2023-09-16T16:21:38.260Z,0.80
2023-09-16T16:24:07.000Z,0.93
2023-09-16T16:26:34.711Z,0.90
2023-09-16T16:29:02.475Z,1.10
2023-09-16T16:31:30.124Z,1.05
2023-09-16T16:33:58.857Z,0.60
2023-09-16T16:36:26.539Z,1.00
2023-09-16T16:38:53.961Z,0.75
2023-09-16T16:41:22.286Z,0.68
2023-09-16T16:43:50.374Z,0.80
2023-09-16T16:46:19.920Z,0.70
2023-09-16T16:48:47.464Z,1.10
2023-09-16T16:51:15.320Z,0.90
2023-09-16T16:53:45.764Z,0.80
2023-09-16T16:56:13.252Z,0.80
2023-09-16T16:58:40.804Z,0.95
2023-09-16T17:01:08.420Z,0.60
2023-09-16T17:03:36.734Z,0.60
2023-09-16T17:06:08.809Z,0.95
2023-09-16T17:08:36.250Z,0.82
2023-09-16T17:11:05.261Z,1.00
2023-09-16T17:13:32.919Z,0.80
2023-09-16T17:16:01.840Z,1.13
2023-09-16T17:18:29.374Z,0.60
2023-09-16T17:20:58.346Z,0.88
2023-09-16T17:23:25.798Z,0.60
2023-09-16T17:25:53.438Z,0.90
2023-09-16T17:28:25.675Z,0.80
2023-09-16T17:30:53.501Z,0.80
2023-09-16T17:33:20.959Z,0.40
2023-09-16T17:35:53.734Z,0.60
2023-09-16T17:38:21.923Z,0.50
2023-09-16T17:40:49.647Z,0.60
2023-09-16T17:43:17.082Z,0.80
2023-09-16T17:45:47.236Z,0.77
2023-09-16T17:48:14.653Z,1.00
2023-09-16T17:50:42.336Z,0.80
2023-09-16T17:53:10.028Z,0.95
2023-09-16T17:55:39.682Z,1.00
2023-09-16T17:58:07.232Z,1.05
2023-09-16T18:00:35.092Z,1.05
2023-09-16T18:03:03.551Z,0.90
2023-09-16T18:05:31.157Z,1.00
2023-09-16T18:07:58.650Z,0.70
2023-09-16T18:10:26.125Z,0.70
2023-09-16T18:12:53.644Z,1.10
2023-09-16T18:15:21.124Z,1.10
2023-09-16T18:17:48.668Z,0.70
2023-09-16T18:20:16.166Z,1.00
2023-09-16T18:22:43.568Z,1.20
2023-09-16T18:25:11.217Z,1.13
2023-09-16T18:27:38.726Z,1.10
2023-09-16T18:30:06.407Z,0.88
2023-09-16T18:32:33.929Z,1.27
2023-09-16T18:35:01.333Z,0.90
2023-09-16T18:37:28.785Z,0.90
2023-09-16T18:39:56.139Z,0.60
2023-09-16T18:42:23.560Z,1.10
2023-09-16T18:44:50.962Z,1.70
2023-09-16T18:47:18.688Z,1.17
2023-09-16T18:49:49.202Z,1.10
2023-09-16T18:52:16.857Z,1.20
2023-09-16T18:54:44.411Z,1.10
2023-09-16T18:57:12.248Z,4.47
2023-09-16T18:59:39.684Z,2.78
2023-09-16T19:02:07.249Z,1.20
2023-09-16T19:04:34.971Z,0.93
2023-09-16T19:07:02.626Z,0.90
2023-09-16T19:09:30.080Z,1.05
2023-09-16T19:11:57.541Z,0.82
2023-09-16T19:14:24.962Z,0.75
2023-09-16T19:16:52.420Z,0.82
2023-09-16T19:19:19.941Z,0.63
2023-09-16T19:21:50.744Z,1.10
2023-09-16T19:24:20.206Z,0.57
2023-09-16T19:26:47.774Z,0.68
2023-09-16T19:29:15.248Z,1.15
2023-09-16T19:31:42.969Z,1.00
2023-09-16T19:34:11.037Z,1.00
2023-09-16T19:36:38.561Z,0.90
2023-09-16T19:39:06.167Z,1.00
2023-09-16T19:41:34.111Z,1.10
2023-09-16T19:44:01.699Z,1.15
2023-09-16T19:46:32.809Z,1.20
2023-09-16T19:49:04.751Z,0.93
2023-09-16T19:51:32.528Z,1.05
2023-09-16T19:53:59.925Z,1.20
2023-09-16T19:56:27.326Z,1.15
2023-09-16T19:58:55.045Z,1.10
2023-09-16T20:01:22.727Z,1.52
2023-09-16T20:03:50.855Z,1.40
2023-09-16T20:06:18.727Z,1.58
2023-09-16T20:08:46.096Z,1.60
2023-09-16T20:11:13.529Z,1.83
2023-09-16T20:13:41.382Z,1.50
2023-09-16T20:16:08.955Z,1.50
2023-09-16T20:18:36.653Z,1.50
2023-09-16T20:21:04.135Z,1.58
2023-09-16T20:23:31.688Z,1.60
2023-09-16T20:26:01.499Z,1.77
2023-09-16T20:28:29.689Z,1.63
2023-09-16T20:30:58.747Z,1.63
2023-09-16T20:33:26.348Z,1.70
2023-09-16T20:35:53.732Z,1.80
2023-09-16T20:38:21.145Z,1.70
2023-09-16T20:40:48.699Z,1.52
2023-09-16T20:43:16.199Z,1.88
2023-09-16T20:45:44.086Z,1.50
2023-09-16T20:48:11.520Z,1.85
2023-09-16T20:50:38.969Z,1.70
2023-09-16T20:53:07.286Z,1.92
2023-09-16T20:55:34.872Z,1.90
2023-09-16T20:58:02.408Z,1.80
2023-09-16T21:00:29.854Z,1.40
2023-09-16T21:02:57.438Z,1.75
2023-09-16T21:05:25.009Z,1.55
2023-09-16T21:07:52.483Z,1.92
2023-09-16T21:10:19.929Z,1.40
2023-09-16T21:12:47.481Z,1.60
2023-09-16T21:15:14.960Z,1.95
2023-09-16T21:17:42.665Z,1.38
2023-09-16T21:20:10.321Z,1.80
2023-09-16T21:22:37.727Z,1.80
2023-09-16T21:25:05.568Z,2.33
2023-09-16T21:27:33.100Z,2.50
2023-09-16T21:30:00.614Z,2.83
2023-09-16T21:32:28.313Z,2.40
2023-09-16T21:34:55.968Z,1.95
2023-09-16T21:37:23.453Z,2.28
2023-09-16T21:39:51.201Z,2.28
2023-09-16T21:42:18.883Z,2.55
2023-09-16T21:44:46.974Z,2.40
2023-09-16T21:47:14.684Z,1.92
2023-09-16T21:49:42.073Z,2.08
2023-09-16T21:52:09.786Z,2.05
2023-09-16T21:54:37.243Z,2.30
2023-09-16T21:57:05.006Z,2.20
2023-09-16T21:59:32.425Z,2.13
2023-09-16T22:02:00.063Z,2.08
2023-09-16T22:04:27.510Z,2.15
2023-09-16T22:06:54.961Z,1.83
2023-09-16T22:09:22.444Z,2.08
2023-09-16T22:11:50.644Z,2.15
2023-09-16T22:14:18.645Z,1.73
2023-09-16T22:16:46.393Z,2.30
2023-09-16T22:19:16.557Z,1.63
2023-09-16T22:21:44.124Z,1.80
2023-09-16T22:24:11.627Z,1.70
2023-09-16T22:26:39.069Z,1.73
2023-09-16T22:29:06.523Z,1.60
2023-09-16T22:31:33.978Z,1.58
2023-09-16T22:34:01.701Z,1.27
2023-09-16T22:36:30.406Z,1.40
2023-09-16T22:38:57.807Z,1.90
2023-09-16T22:41:25.373Z,1.30
2023-09-16T22:43:53.209Z,1.25
2023-09-16T22:46:20.746Z,1.38
2023-09-16T22:48:48.530Z,1.42
2023-09-16T22:51:15.976Z,1.33
2023-09-16T22:53:43.613Z,1.35
2023-09-16T22:56:11.089Z,1.30
2023-09-16T22:58:39.654Z,1.48
2023-09-16T23:01:10.992Z,1.40
2023-09-16T23:03:38.889Z,1.40
2023-09-16T23:06:06.410Z,1.13
2023-09-16T23:08:33.945Z,1.58
2023-09-16T23:11:01.593Z,1.70
2023-09-16T23:13:29.131Z,1.27
2023-09-16T23:15:56.574Z,1.13
2023-09-16T23:18:24.205Z,1.38
2023-09-16T23:21:00.844Z,1.40
2023-09-16T23:23:28.809Z,1.63
2023-09-16T23:25:56.548Z,1.33
2023-09-16T23:28:24.076Z,1.10
2023-09-16T23:30:51.712Z,1.40
2023-09-16T23:33:19.459Z,1.20
2023-09-16T23:35:46.885Z,1.48
2023-09-16T23:38:14.469Z,1.35
2023-09-16T23:40:43.104Z,1.10
2023-09-16T23:43:10.992Z,1.35
2023-09-16T23:45:38.506Z,1.27
2023-09-16T23:48:07.167Z,1.05
2023-09-16T23:50:35.312Z,1.35
2023-09-16T23:53:02.673Z,1.30
2023-09-16T23:55:30.845Z,1.40
2023-09-16T23:57:58.473Z,1.20
